createdAt,value
2022-08-05T00:01:49.165Z,20.42
2022-08-05T00:06:42.768Z,20.40
2022-08-05T00:09:13.063Z,20.39
2022-08-05T00:11:49.220Z,20.35
2022-08-05T00:19:12.507Z,20.33
2022-08-05T00:21:42.791Z,20.28
2022-08-05T00:24:16.134Z,20.29
2022-08-05T00:26:43.344Z,20.27
2022-08-05T00:29:12.418Z,20.25
2022-08-05T00:32:10.530Z,20.20
2022-08-05T00:41:51.413Z,20.18
2022-08-05T00:44:12.591Z,20.21
2022-08-05T00:46:43.775Z,20.22
2022-08-05T00:49:14.012Z,20.23
2022-08-05T00:51:50.396Z,20.20
2022-08-05T00:54:13.019Z,20.22
2022-08-05T00:56:45.061Z,20.23
2022-08-05T00:59:12.528Z,20.22
2022-08-05T01:01:48.598Z,20.20
2022-08-05T01:04:14.189Z,20.22
2022-08-05T01:09:12.497Z,20.21
2022-08-05T01:11:45.389Z,20.18
2022-08-05T01:16:48.118Z,20.17
2022-08-05T01:19:36.622Z,20.14
2022-08-05T01:21:59.774Z,20.09
2022-08-05T01:24:25.216Z,20.10
2022-08-05T01:26:55.030Z,20.08
2022-08-05T01:29:18.138Z,20.07
2022-08-05T01:31:47.123Z,20.01
2022-08-05T01:34:16.247Z,20.00
2022-08-05T01:36:51.786Z,19.99
2022-08-05T01:39:15.049Z,19.97
2022-08-05T01:41:45.440Z,19.91
2022-08-05T01:44:14.105Z,19.89
2022-08-05T01:46:46.472Z,19.84
2022-08-05T01:49:23.996Z,19.80
2022-08-05T01:51:42.477Z,19.72
2022-08-05T01:54:15.176Z,19.69
2022-08-05T01:58:13.194Z,19.66
2022-08-05T01:59:15.763Z,19.62
2022-08-05T02:01:45.256Z,19.56
2022-08-05T02:04:16.238Z,19.53
2022-08-05T02:06:42.459Z,19.51
2022-08-05T02:09:14.706Z,19.48
2022-08-05T02:11:52.143Z,19.41
2022-08-05T02:14:18.487Z,19.40
2022-08-05T02:16:46.589Z,19.38
2022-08-05T02:19:19.552Z,19.36
2022-08-05T02:21:49.262Z,19.31
2022-08-05T02:26:54.692Z,19.30
2022-08-05T02:31:45.943Z,19.27
2022-08-05T02:34:15.737Z,19.28
2022-08-05T02:36:52.532Z,19.27
2022-08-05T02:42:00.789Z,19.24
2022-08-05T02:44:13.446Z,19.26
2022-08-05T02:46:58.473Z,19.27
2022-08-05T02:52:03.917Z,19.24
2022-08-05T02:54:36.552Z,19.27
2022-08-05T03:01:44.031Z,19.23
2022-08-05T03:04:15.805Z,19.24
2022-08-05T03:06:56.560Z,19.22
2022-08-05T03:09:15.758Z,19.20
2022-08-05T03:11:55.202Z,19.13
2022-08-05T03:16:42.774Z,19.11
2022-08-05T03:19:16.884Z,19.09
2022-08-05T03:21:48.832Z,19.05
2022-08-05T03:24:13.287Z,19.04
2022-08-05T03:26:42.698Z,19.02
2022-08-05T03:29:12.877Z,19.00
2022-08-05T03:31:56.488Z,18.95
2022-08-05T03:34:12.869Z,18.98
2022-08-05T03:41:45.402Z,18.94
2022-08-05T03:44:12.592Z,18.96
2022-08-05T03:52:50.547Z,18.91
2022-08-05T03:55:06.836Z,18.90
2022-08-05T03:56:44.907Z,18.88
2022-08-05T03:59:20.210Z,18.86
2022-08-05T04:01:45.938Z,18.79
2022-08-05T04:04:14.843Z,18.78
2022-08-05T04:06:47.813Z,18.76
2022-08-05T04:09:14.536Z,18.73
2022-08-05T04:11:50.636Z,18.66
2022-08-05T04:14:17.924Z,18.65
2022-08-05T04:16:43.460Z,18.64
2022-08-05T04:19:13.113Z,18.63
2022-08-05T04:22:10.082Z,18.60
2022-08-05T04:24:19.596Z,18.62
2022-08-05T04:29:12.623Z,18.63
2022-08-05T04:31:42.905Z,18.60
2022-08-05T04:36:49.796Z,18.59
2022-08-05T04:39:12.607Z,18.58
2022-08-05T04:41:42.530Z,18.53
2022-08-05T04:51:43.585Z,18.48
2022-08-05T04:54:13.710Z,18.49
2022-08-05T04:56:42.609Z,18.50
2022-08-05T04:59:21.523Z,18.49
2022-08-05T05:02:35.272Z,18.47
2022-08-05T05:04:12.762Z,18.53
2022-08-05T05:06:44.675Z,18.56
2022-08-05T05:09:13.319Z,18.60
2022-08-05T05:11:55.658Z,18.62
2022-08-05T05:14:16.294Z,18.66
2022-08-05T05:16:42.588Z,18.69
2022-08-05T05:19:18.891Z,18.72
2022-08-05T05:21:42.524Z,18.70
2022-08-05T05:24:13.391Z,18.73
2022-08-05T05:26:42.989Z,18.75
2022-08-05T05:29:14.898Z,18.77
2022-08-05T05:31:42.829Z,18.75
2022-08-05T05:34:12.574Z,18.78
2022-08-05T05:36:42.744Z,18.79
2022-08-05T05:41:42.659Z,18.75
2022-08-05T05:44:36.229Z,18.79
2022-08-05T05:46:42.518Z,18.83
2022-08-05T05:49:22.509Z,18.85
2022-08-05T05:51:49.651Z,18.86
2022-08-05T05:54:12.801Z,18.89
2022-08-05T05:56:42.577Z,18.93
2022-08-05T05:59:12.534Z,18.96
2022-08-05T06:04:14.311Z,19.01
2022-08-05T06:06:47.788Z,19.04
2022-08-05T06:09:17.485Z,19.09
2022-08-05T06:14:12.685Z,19.15
2022-08-05T06:16:42.678Z,19.21
2022-08-05T06:19:12.722Z,19.25
2022-08-05T06:21:49.605Z,19.27
2022-08-05T06:24:14.694Z,19.32
2022-08-05T06:26:52.038Z,19.36
2022-08-05T06:29:24.980Z,19.39
2022-08-05T06:31:42.741Z,19.40
2022-08-05T06:36:56.789Z,19.47
2022-08-05T06:39:12.631Z,19.41
2022-08-05T06:41:42.698Z,19.48
2022-08-05T06:44:12.770Z,19.67
2022-08-05T06:46:42.625Z,20.10
2022-08-05T06:49:12.681Z,20.78
2022-08-05T06:51:42.569Z,21.68
2022-08-05T06:54:18.229Z,22.68
2022-08-05T06:56:42.749Z,23.56
2022-08-05T06:59:13.492Z,24.52
2022-08-05T07:01:42.676Z,25.43
2022-08-05T07:04:14.082Z,26.16
2022-08-05T07:06:42.753Z,26.86
2022-08-05T07:09:12.620Z,27.35
2022-08-05T07:11:46.674Z,27.90
2022-08-05T07:14:29.951Z,28.42
2022-08-05T07:17:57.044Z,28.73
2022-08-05T07:19:12.577Z,28.99
2022-08-05T07:22:00.072Z,29.15
2022-08-05T07:24:13.229Z,29.55
2022-08-05T07:26:43.845Z,30.05
2022-08-05T07:29:13.508Z,30.51
2022-08-05T07:31:54.715Z,31.09
2022-08-05T07:34:13.972Z,31.71
2022-08-05T07:36:42.993Z,31.94
2022-08-05T07:39:24.495Z,31.91
2022-08-05T07:42:13.475Z,31.66
2022-08-05T07:44:19.255Z,31.23
2022-08-05T07:46:48.231Z,30.42
2022-08-05T07:49:13.019Z,29.97
2022-08-05T07:51:52.904Z,29.66
2022-08-05T07:54:12.806Z,29.84
2022-08-05T07:57:01.507Z,29.90
2022-08-05T07:59:12.608Z,29.71
2022-08-05T08:01:52.273Z,29.46
2022-08-05T08:04:12.863Z,29.55
2022-08-05T08:06:42.947Z,29.40
2022-08-05T08:09:13.065Z,29.12
2022-08-05T08:11:54.292Z,29.26
2022-08-05T08:14:12.597Z,29.63
2022-08-05T08:16:50.478Z,30.15
2022-08-05T08:19:38.000Z,30.34
2022-08-05T08:21:42.656Z,30.84
2022-08-05T08:24:14.094Z,31.50
2022-08-05T08:26:42.615Z,31.37
2022-08-05T08:30:03.061Z,31.02
2022-08-05T08:31:42.890Z,31.42
2022-08-05T08:34:13.397Z,31.67
2022-08-05T08:36:51.914Z,31.51
2022-08-05T08:39:14.966Z,31.82
2022-08-05T08:41:52.344Z,32.30
2022-08-05T08:45:18.347Z,32.86
2022-08-05T08:46:44.225Z,33.44
2022-08-05T08:50:05.801Z,33.59
2022-08-05T08:52:03.554Z,34.22
2022-08-05T08:54:13.762Z,34.85
2022-08-05T08:56:47.772Z,35.14
2022-08-05T08:59:19.444Z,35.53
2022-08-05T09:01:43.934Z,35.69
2022-08-05T09:04:13.397Z,35.91
2022-08-05T09:06:42.720Z,35.88
2022-08-05T09:09:12.792Z,36.15
2022-08-05T09:11:53.460Z,36.37
2022-08-05T09:14:57.460Z,36.27
2022-08-05T09:16:48.758Z,36.52
2022-08-05T09:19:12.712Z,36.99
2022-08-05T09:22:21.828Z,37.03
2022-08-05T09:24:12.677Z,37.35
2022-08-05T09:26:46.176Z,37.59
2022-08-05T09:29:16.256Z,38.05
2022-08-05T09:32:41.032Z,38.25
2022-08-05T09:34:13.092Z,38.63
2022-08-05T09:36:54.014Z,38.90
2022-08-05T09:39:18.135Z,39.15
2022-08-05T09:41:56.308Z,39.19
2022-08-05T09:44:32.448Z,39.49
2022-08-05T09:46:51.818Z,39.58
2022-08-05T09:49:22.572Z,39.83
2022-08-05T09:51:42.897Z,40.03
2022-08-05T09:54:12.892Z,39.97
2022-08-05T09:56:51.600Z,40.17
2022-08-05T09:59:17.176Z,40.36
2022-08-05T10:01:45.754Z,40.30
2022-08-05T10:04:14.113Z,40.15
2022-08-05T10:06:59.117Z,39.31
2022-08-05T10:09:28.304Z,38.82
2022-08-05T10:11:44.441Z,38.71
2022-08-05T10:14:22.042Z,38.69
2022-08-05T10:16:53.004Z,38.78
2022-08-05T10:19:14.867Z,39.10
2022-08-05T10:21:44.589Z,39.24
2022-08-05T10:24:13.688Z,38.99
2022-08-05T10:26:51.718Z,38.39
2022-08-05T10:29:13.066Z,37.77
2022-08-05T10:32:51.846Z,37.41
2022-08-05T10:34:12.773Z,37.44
2022-08-05T10:36:43.160Z,37.17
2022-08-05T10:39:24.915Z,36.61
2022-08-05T10:42:00.826Z,36.02
2022-08-05T10:44:17.259Z,36.07
2022-08-05T10:46:45.144Z,35.91
2022-08-05T10:49:16.677Z,35.66
2022-08-05T10:51:48.686Z,35.86
2022-08-05T10:54:28.208Z,36.19
2022-08-05T10:56:44.998Z,36.53
2022-08-05T11:00:02.103Z,36.46
2022-08-05T11:01:55.290Z,36.12
2022-08-05T11:04:16.424Z,35.89
2022-08-05T11:07:03.804Z,35.11
2022-08-05T11:09:17.405Z,34.67
2022-08-05T11:11:53.627Z,34.49
2022-08-05T11:14:37.077Z,33.95
2022-08-05T11:16:55.993Z,33.16
2022-08-05T11:20:16.840Z,32.59
2022-08-05T11:21:49.351Z,32.05
2022-08-05T11:24:30.006Z,31.37
2022-08-05T11:26:43.364Z,30.43
2022-08-05T11:29:32.521Z,29.72
2022-08-05T11:31:56.930Z,29.22
2022-08-05T11:34:14.792Z,29.02
2022-08-05T11:36:46.257Z,28.73
2022-08-05T11:39:14.664Z,28.58
2022-08-05T11:42:01.033Z,28.53
2022-08-05T11:44:40.420Z,28.77
2022-08-05T11:47:09.925Z,28.80
2022-08-05T11:49:14.200Z,29.12
2022-08-05T11:51:49.255Z,29.30
2022-08-05T11:54:19.696Z,29.73
2022-08-05T11:56:44.842Z,30.21
2022-08-05T11:59:15.980Z,30.46
2022-08-05T12:01:53.885Z,30.25
2022-08-05T12:04:12.805Z,29.96
2022-08-05T12:06:48.675Z,29.55
2022-08-05T12:09:19.982Z,29.29
2022-08-05T12:11:43.556Z,29.15
2022-08-05T12:14:13.140Z,29.76
2022-08-05T12:16:46.426Z,29.99
2022-08-05T12:20:16.846Z,29.56
2022-08-05T12:21:45.975Z,30.11
2022-08-05T12:24:17.273Z,30.09
2022-08-05T12:26:44.721Z,29.95
2022-08-05T12:29:16.153Z,29.68
2022-08-05T12:31:50.116Z,29.34
2022-08-05T12:34:14.652Z,29.25
2022-08-05T12:36:44.965Z,28.80
2022-08-05T12:39:13.264Z,28.33
2022-08-05T12:41:43.802Z,27.85
2022-08-05T12:44:21.644Z,27.64
2022-08-05T12:46:51.571Z,27.47
2022-08-05T12:49:14.320Z,27.20
2022-08-05T12:52:12.897Z,26.94
2022-08-05T12:54:23.646Z,26.49
2022-08-05T12:56:47.096Z,26.08
2022-08-05T12:59:14.599Z,26.17
2022-08-05T13:02:00.257Z,25.85
2022-08-05T13:06:51.582Z,25.25
2022-08-05T13:09:13.349Z,25.68
2022-08-05T13:12:03.233Z,25.37
2022-08-05T13:14:15.596Z,25.19
2022-08-05T13:16:46.275Z,24.91
2022-08-05T13:19:13.176Z,25.16
2022-08-05T13:21:48.159Z,25.27
2022-08-05T13:24:13.379Z,25.24
2022-08-05T13:26:43.670Z,25.18
2022-08-05T13:29:19.147Z,25.13
2022-08-05T13:32:04.101Z,25.08
2022-08-05T13:34:21.144Z,25.20
2022-08-05T13:36:43.034Z,25.28
2022-08-05T13:39:24.706Z,25.36
2022-08-05T13:41:43.234Z,25.37
2022-08-05T13:44:13.046Z,25.28
2022-08-05T13:47:04.687Z,25.14
2022-08-05T13:49:12.982Z,24.91
2022-08-05T13:51:46.409Z,24.72
2022-08-05T13:54:15.210Z,24.56
2022-08-05T13:56:45.209Z,24.51
2022-08-05T13:59:19.478Z,24.34
2022-08-05T14:01:46.575Z,24.27
2022-08-05T14:04:26.604Z,24.13
2022-08-05T14:06:47.592Z,24.23
2022-08-05T14:12:04.199Z,24.17
2022-08-05T14:14:12.735Z,24.23
2022-08-05T14:16:42.903Z,24.24
2022-08-05T14:19:12.825Z,24.29
2022-08-05T14:22:09.042Z,24.10
2022-08-05T14:24:13.058Z,24.15
2022-08-05T14:26:56.560Z,24.10
2022-08-05T14:29:16.464Z,24.22
2022-08-05T14:32:02.949Z,24.12
2022-08-05T14:34:13.096Z,24.29
2022-08-05T14:36:42.856Z,24.26
2022-08-05T14:39:12.904Z,24.22
2022-08-05T14:42:02.367Z,24.29
2022-08-05T14:44:20.258Z,24.19
2022-08-05T14:46:42.953Z,24.32
2022-08-05T14:49:12.956Z,24.28
2022-08-05T14:51:43.221Z,24.16
2022-08-05T14:54:30.285Z,24.12
2022-08-05T14:56:44.193Z,24.00
2022-08-05T14:59:13.141Z,23.88
2022-08-05T15:01:48.262Z,23.82
2022-08-05T15:04:12.809Z,23.93
2022-08-05T15:06:49.603Z,23.85
2022-08-05T15:09:12.789Z,23.79
2022-08-05T15:11:53.200Z,23.72
2022-08-05T15:14:33.523Z,23.67
2022-08-05T15:16:42.958Z,23.61
2022-08-05T15:19:23.463Z,23.65
2022-08-05T15:21:43.150Z,23.56
2022-08-05T15:24:13.419Z,23.47
2022-08-05T15:26:42.841Z,23.43
2022-08-05T15:29:12.838Z,23.44
2022-08-05T15:31:44.441Z,23.25
2022-08-05T15:34:31.628Z,23.27
2022-08-05T15:40:59.542Z,23.16
2022-08-05T15:41:55.544Z,23.13
2022-08-05T15:44:13.048Z,23.09
2022-08-05T15:46:42.914Z,23.12
2022-08-05T15:49:18.156Z,23.14
2022-08-05T15:52:04.180Z,23.11
2022-08-05T15:54:15.157Z,23.18
2022-08-05T15:56:43.537Z,23.22
2022-08-05T15:59:21.774Z,23.19
2022-08-05T16:01:52.815Z,23.37
2022-08-05T16:04:12.968Z,23.55
2022-08-05T16:06:43.080Z,23.56
2022-08-05T16:09:12.851Z,23.54
2022-08-05T16:11:43.868Z,23.44
2022-08-05T16:14:17.281Z,23.35
2022-08-05T16:16:43.117Z,23.22
2022-08-05T16:19:25.400Z,23.17
2022-08-05T16:22:01.154Z,23.05
2022-08-05T16:24:39.580Z,22.88
2022-08-05T16:26:52.709Z,22.91
2022-08-05T16:29:13.219Z,22.90
2022-08-05T16:31:56.874Z,22.74
2022-08-05T16:34:13.274Z,22.68
2022-08-05T16:36:43.065Z,22.65
2022-08-05T16:39:13.639Z,22.61
2022-08-05T16:42:14.309Z,22.48
2022-08-05T16:44:14.622Z,22.51
2022-08-05T16:46:55.445Z,22.48
2022-08-05T16:49:13.163Z,22.40
2022-08-05T16:51:50.947Z,22.36
2022-08-05T16:54:17.544Z,22.22
2022-08-05T16:56:42.916Z,22.06
2022-08-05T16:59:15.759Z,22.02
2022-08-05T17:01:53.837Z,22.03
2022-08-05T17:04:12.956Z,22.02
2022-08-05T17:06:42.924Z,21.93
2022-08-05T17:09:12.947Z,21.87
2022-08-05T17:11:48.701Z,21.86
2022-08-05T17:14:13.468Z,21.75
2022-08-05T17:16:42.959Z,21.62
2022-08-05T17:19:13.077Z,21.60
2022-08-05T17:21:42.909Z,21.53
2022-08-05T17:24:30.375Z,21.50
2022-08-05T17:26:43.665Z,21.28
2022-08-05T17:31:58.304Z,21.15
2022-08-05T17:34:17.755Z,21.12
2022-08-05T17:39:24.509Z,21.10
2022-08-05T17:42:19.801Z,21.01
2022-08-05T17:44:12.916Z,20.97
2022-08-05T17:49:12.976Z,20.94
2022-08-05T17:51:43.093Z,20.85
2022-08-05T17:54:13.480Z,20.86
2022-08-05T17:56:42.998Z,20.84
2022-08-05T17:59:12.916Z,20.75
2022-08-05T18:01:49.547Z,20.65
2022-08-05T18:04:13.005Z,20.58
2022-08-05T18:06:42.955Z,20.49
2022-08-05T18:09:14.600Z,20.43
2022-08-05T18:11:43.039Z,20.32
2022-08-05T18:14:13.681Z,20.31
2022-08-05T18:16:51.544Z,20.30
2022-08-05T18:19:13.083Z,20.26
2022-08-05T18:22:09.617Z,20.18
2022-08-05T18:24:14.473Z,20.16
2022-08-05T18:26:43.938Z,20.19
2022-08-05T18:29:13.056Z,20.13
2022-08-05T18:31:43.329Z,20.01
2022-08-05T18:34:13.422Z,19.99
2022-08-05T18:36:43.706Z,19.93
2022-08-05T18:39:42.489Z,19.90
2022-08-05T18:41:57.175Z,19.81
2022-08-05T18:44:12.910Z,19.77
2022-08-05T18:46:43.093Z,19.70
2022-08-05T18:49:22.930Z,19.64
2022-08-05T18:52:04.015Z,19.56
2022-08-05T18:54:12.931Z,19.54
2022-08-05T18:56:51.214Z,19.47
2022-08-05T18:59:43.651Z,19.42
2022-08-05T19:01:48.022Z,19.33
2022-08-05T19:04:12.909Z,19.29
2022-08-05T19:06:44.825Z,19.20
2022-08-05T19:09:12.908Z,19.14
2022-08-05T19:12:00.196Z,19.05
2022-08-05T19:14:53.450Z,19.02
2022-08-05T19:16:47.091Z,18.95
2022-08-05T19:19:13.362Z,18.88
2022-08-05T19:21:42.942Z,18.77
2022-08-05T19:24:13.253Z,18.72
2022-08-05T19:26:55.009Z,18.67
2022-08-05T19:29:12.951Z,18.60
2022-08-05T19:31:44.936Z,18.54
2022-08-05T19:34:12.979Z,18.46
2022-08-05T19:36:43.136Z,18.40
2022-08-05T19:39:13.157Z,18.36
2022-08-05T19:42:06.460Z,18.28
2022-08-05T19:44:14.125Z,18.24
2022-08-05T19:46:43.804Z,18.18
2022-08-05T19:49:17.290Z,18.12
2022-08-05T19:52:08.996Z,17.99
2022-08-05T19:54:21.680Z,17.97
2022-08-05T19:56:42.912Z,17.92
2022-08-05T19:59:54.600Z,17.88
2022-08-05T20:01:43.129Z,17.79
2022-08-05T20:04:13.471Z,17.75
2022-08-05T20:06:45.975Z,17.71
2022-08-05T20:09:14.174Z,17.66
2022-08-05T20:11:42.971Z,17.59
2022-08-05T20:14:14.684Z,17.56
2022-08-05T20:16:43.119Z,17.51
2022-08-05T20:19:13.460Z,17.46
2022-08-05T20:21:43.460Z,17.38
2022-08-05T20:24:13.478Z,17.36
2022-08-05T20:26:43.239Z,17.31
2022-08-05T20:29:26.548Z,17.28
2022-08-05T20:31:53.530Z,17.22
2022-08-05T20:34:12.938Z,17.19
2022-08-05T20:36:43.848Z,17.11
2022-08-05T20:39:13.542Z,17.07
2022-08-05T20:41:45.225Z,17.02
2022-08-05T20:44:19.243Z,16.98
2022-08-05T20:46:43.094Z,16.94
2022-08-05T20:49:13.774Z,16.88
2022-08-05T20:51:44.303Z,16.81
2022-08-05T20:53:42.525Z,16.81
2022-08-05T20:54:14.093Z,16.77
2022-08-05T20:55:56.829Z,16.77
2022-08-05T20:56:43.218Z,16.73
2022-08-05T20:57:43.408Z,16.73
2022-08-05T20:59:19.205Z,16.69
2022-08-05T21:01:44.015Z,16.63
2022-08-05T21:03:51.336Z,16.63
2022-08-05T21:04:13.073Z,16.59
2022-08-05T21:05:53.350Z,16.59
2022-08-05T21:06:45.109Z,16.55
2022-08-05T21:07:51.008Z,16.55
2022-08-05T21:09:15.208Z,16.50
2022-08-05T21:09:34.679Z,16.50
2022-08-05T21:12:09.861Z,16.50
2022-08-05T21:12:10.094Z,16.44
2022-08-05T21:14:13.181Z,16.42
2022-08-05T21:16:07.719Z,16.42
2022-08-05T21:16:43.307Z,16.37
2022-08-05T21:19:08.523Z,16.37
2022-08-05T21:19:12.751Z,16.33
2022-08-05T21:21:44.321Z,16.33
2022-08-05T21:21:51.285Z,16.27
2022-08-05T21:23:39.090Z,16.27
2022-08-05T21:24:13.535Z,16.25
2022-08-05T21:25:34.830Z,16.25
2022-08-05T21:26:50.575Z,16.20
2022-08-05T21:28:50.911Z,16.20
2022-08-05T21:29:16.675Z,16.17
2022-08-05T21:31:43.008Z,16.12
2022-08-05T21:32:08.339Z,16.12
2022-08-05T21:34:14.796Z,16.08
2022-08-05T21:35:58.444Z,16.08
2022-08-05T21:36:43.486Z,16.02
2022-08-05T21:37:42.849Z,16.02
2022-08-05T21:39:16.984Z,16.03
2022-08-05T21:39:40.647Z,16.03
2022-08-05T21:41:37.607Z,16.03
2022-08-05T21:41:43.019Z,16.01
2022-08-05T21:43:41.722Z,16.01
2022-08-05T21:46:45.895Z,15.99
2022-08-05T21:49:48.301Z,15.97
2022-08-05T21:49:59.367Z,15.97
2022-08-05T21:52:16.707Z,15.97
2022-08-05T21:52:23.054Z,15.92
2022-08-05T21:53:37.402Z,15.92
2022-08-05T21:56:01.594Z,15.92
2022-08-05T21:56:44.594Z,15.89
2022-08-05T21:57:36.747Z,15.89
2022-08-05T21:59:24.375Z,15.87
2022-08-05T21:59:48.098Z,15.87
2022-08-05T22:01:43.163Z,15.82
2022-08-05T22:02:07.680Z,15.82
2022-08-05T22:04:13.417Z,15.81
2022-08-05T22:05:09.064Z,15.81
2022-08-05T22:06:43.281Z,15.80
2022-08-05T22:07:58.751Z,15.80
2022-08-05T22:09:15.383Z,15.79
2022-08-05T22:09:45.927Z,15.79
2022-08-05T22:11:49.325Z,15.76
2022-08-05T22:14:19.586Z,15.76
2022-08-05T22:14:35.768Z,15.74
2022-08-05T22:16:01.499Z,15.74
2022-08-05T22:16:51.954Z,15.73
2022-08-05T22:17:56.292Z,15.73
2022-08-05T22:19:55.870Z,15.70
2022-08-05T22:20:01.088Z,15.70
2022-08-05T22:21:18.957Z,15.70
2022-08-05T22:21:43.523Z,15.66
2022-08-05T22:24:02.299Z,15.66
2022-08-05T22:24:39.628Z,15.65
2022-08-05T22:26:10.573Z,15.65
2022-08-05T22:26:52.881Z,15.63
2022-08-05T22:28:08.538Z,15.63
2022-08-05T22:29:14.493Z,15.61
2022-08-05T22:31:44.569Z,15.53
2022-08-05T22:31:45.492Z,15.53
2022-08-05T22:33:56.860Z,15.53
2022-08-05T22:35:47.830Z,15.53
2022-08-05T22:36:43.095Z,15.50
2022-08-05T22:38:43.869Z,15.50
2022-08-05T22:39:15.936Z,15.47
2022-08-05T22:42:09.664Z,15.47
2022-08-05T22:42:11.632Z,15.42
2022-08-05T22:43:39.631Z,15.42
2022-08-05T22:44:13.209Z,15.40
2022-08-05T22:45:37.686Z,15.40
2022-08-05T22:46:43.214Z,15.38
2022-08-05T22:47:34.505Z,15.38
2022-08-05T22:49:23.214Z,15.38
2022-08-05T22:49:46.010Z,15.34
2022-08-05T22:52:04.876Z,15.29
2022-08-05T22:52:43.014Z,15.29
2022-08-05T22:54:13.324Z,15.26
2022-08-05T22:54:37.552Z,15.26
2022-08-05T22:56:45.865Z,15.23
2022-08-05T22:59:02.884Z,15.23
2022-08-05T22:59:45.542Z,15.19
2022-08-05T23:01:10.144Z,15.19
2022-08-05T23:02:04.178Z,15.12
2022-08-05T23:03:13.553Z,15.12
2022-08-05T23:04:13.195Z,15.11
2022-08-05T23:05:14.669Z,15.11
2022-08-05T23:06:43.102Z,15.08
2022-08-05T23:07:26.635Z,15.08
2022-08-05T23:09:53.419Z,15.06
2022-08-05T23:11:28.143Z,15.06
2022-08-05T23:11:46.632Z,15.00
2022-08-05T23:13:13.541Z,15.00
2022-08-05T23:14:13.060Z,14.98
2022-08-05T23:15:56.151Z,14.98
2022-08-05T23:16:52.960Z,14.94
2022-08-05T23:18:00.551Z,14.94
2022-08-05T23:19:23.663Z,14.92
2022-08-05T23:20:44.536Z,14.92
2022-08-05T23:21:48.413Z,14.87
2022-08-05T23:22:58.581Z,14.87
2022-08-05T23:24:13.250Z,14.85
2022-08-05T23:25:53.572Z,14.85
2022-08-05T23:26:44.139Z,14.82
2022-08-05T23:28:08.451Z,14.82
2022-08-05T23:29:15.825Z,14.79
2022-08-05T23:31:57.200Z,14.73
2022-08-05T23:34:04.060Z,14.73
2022-08-05T23:34:12.973Z,14.72
2022-08-05T23:35:44.426Z,14.72
2022-08-05T23:36:44.590Z,14.69
2022-08-05T23:37:57.208Z,14.69
2022-08-05T23:39:17.660Z,14.66
2022-08-05T23:39:53.920Z,14.66
2022-08-05T23:41:59.077Z,14.61
2022-08-05T23:44:15.413Z,14.59
2022-08-05T23:45:23.762Z,14.59
2022-08-05T23:46:43.291Z,14.56
2022-08-05T23:47:59.380Z,14.56
2022-08-05T23:49:16.831Z,14.53
2022-08-05T23:49:56.754Z,14.53
2022-08-05T23:51:53.486Z,14.47
2022-08-05T23:53:22.866Z,14.47
2022-08-05T23:54:13.148Z,14.46
2022-08-05T23:55:42.642Z,14.46
2022-08-05T23:56:43.106Z,14.43
2022-08-05T23:58:31.747Z,14.43
2022-08-05T23:59:13.009Z,14.41
